createdAt,value
2023-04-16T00:02:19.755Z,3.88
2023-04-16T00:05:05.697Z,3.87
2023-04-16T00:07:51.979Z,3.80
2023-04-16T00:10:37.102Z,3.77
2023-04-16T00:13:22.759Z,3.79
2023-04-16T00:16:08.373Z,3.79
2023-04-16T00:18:53.776Z,3.77
2023-04-16T00:21:39.239Z,3.68
2023-04-16T00:24:24.499Z,3.64
2023-04-16T00:27:09.787Z,3.61
2023-04-16T00:29:55.064Z,3.56
2023-04-16T00:32:40.498Z,3.51
2023-04-16T00:35:25.895Z,3.48
2023-04-16T00:38:11.244Z,3.48
2023-04-16T00:40:58.855Z,3.43
2023-04-16T00:43:44.082Z,3.42
2023-04-16T00:46:29.477Z,3.42
2023-04-16T00:49:14.978Z,3.48
2023-04-16T00:52:02.468Z,3.46
2023-04-16T00:54:47.778Z,3.49
2023-04-16T00:57:33.090Z,3.45
2023-04-16T01:00:18.319Z,3.37
2023-04-16T01:03:05.526Z,3.29
2023-04-16T01:05:51.315Z,3.24
2023-04-16T01:08:36.353Z,3.25
2023-04-16T01:11:21.667Z,3.24
2023-04-16T01:14:07.224Z,3.22
2023-04-16T01:16:52.408Z,3.21
2023-04-16T01:19:38.538Z,3.20
2023-04-16T01:22:23.687Z,3.18
2023-04-16T01:25:09.112Z,3.22
2023-04-16T01:27:54.948Z,3.24
2023-04-16T01:30:40.033Z,3.20
2023-04-16T01:33:25.528Z,3.15
2023-04-16T01:36:10.786Z,3.16
2023-04-16T01:38:56.297Z,3.11
2023-04-16T01:41:41.546Z,3.12
2023-04-16T01:44:26.511Z,3.12
2023-04-16T01:47:11.852Z,3.03
2023-04-16T01:49:57.194Z,3.00
2023-04-16T01:52:42.124Z,2.93
2023-04-16T01:55:27.287Z,2.96
2023-04-16T01:58:14.800Z,3.00
2023-04-16T02:01:00.461Z,2.97
2023-04-16T02:03:45.760Z,2.93
2023-04-16T02:06:31.666Z,2.91
2023-04-16T02:09:16.629Z,2.91
2023-04-16T02:12:03.453Z,2.91
2023-04-16T02:14:48.591Z,2.90
2023-04-16T02:17:33.837Z,2.96
2023-04-16T02:20:19.505Z,2.93
2023-04-16T02:23:04.404Z,2.86
2023-04-16T02:25:49.798Z,2.81
2023-04-16T02:28:35.085Z,2.77
2023-04-16T02:31:21.857Z,2.81
2023-04-16T02:34:06.960Z,2.78
2023-04-16T02:36:52.224Z,2.76
2023-04-16T02:39:37.551Z,2.79
2023-04-16T02:42:22.809Z,2.79
2023-04-16T02:45:08.941Z,2.75
2023-04-16T02:47:54.141Z,2.69
2023-04-16T02:50:39.324Z,2.64
2023-04-16T02:53:24.720Z,2.60
2023-04-16T02:56:10.002Z,2.60
2023-04-16T02:58:55.103Z,2.57
2023-04-16T03:01:40.477Z,2.61
2023-04-16T03:04:25.870Z,2.68
2023-04-16T03:07:13.003Z,2.65
2023-04-16T03:09:58.087Z,2.60
2023-04-16T03:12:43.304Z,2.62
2023-04-16T03:15:29.062Z,2.64
2023-04-16T03:18:14.503Z,2.67
2023-04-16T03:21:00.023Z,2.74
2023-04-16T03:23:45.075Z,2.75
2023-04-16T03:26:30.657Z,2.71
2023-04-16T03:29:15.767Z,2.75
2023-04-16T03:32:00.973Z,2.76
2023-04-16T03:34:46.498Z,2.74
2023-04-16T03:37:31.488Z,2.70
2023-04-16T03:40:16.848Z,2.67
2023-04-16T03:43:02.209Z,2.64
2023-04-16T03:45:47.631Z,2.64
2023-04-16T03:48:32.823Z,2.62
2023-04-16T03:51:17.736Z,2.66
2023-04-16T03:54:02.999Z,2.73
2023-04-16T03:56:48.271Z,2.77
2023-04-16T03:59:33.567Z,2.77
2023-04-16T04:02:19.144Z,2.84
2023-04-16T04:05:05.116Z,2.81
2023-04-16T04:07:50.721Z,2.85
2023-04-16T04:10:36.289Z,2.87
2023-04-16T04:13:21.660Z,2.88
2023-04-16T04:16:07.323Z,2.87
2023-04-16T04:18:52.800Z,2.88
2023-04-16T04:21:38.851Z,2.89
2023-04-16T04:24:24.242Z,2.86
2023-04-16T04:27:09.472Z,2.92
2023-04-16T04:29:54.675Z,2.98
2023-04-16T04:32:40.052Z,3.02
2023-04-16T04:35:25.254Z,3.05
2023-04-16T04:38:10.468Z,3.14
2023-04-16T04:40:56.069Z,3.15
2023-04-16T04:43:41.252Z,3.11
2023-04-16T04:46:26.409Z,3.12
2023-04-16T04:49:12.029Z,3.08
2023-04-16T04:51:57.394Z,3.08
2023-04-16T04:54:42.782Z,3.13
2023-04-16T04:57:28.014Z,3.12
2023-04-16T05:00:13.384Z,3.08
2023-04-16T05:03:02.423Z,2.95
2023-04-16T05:05:47.902Z,2.95
2023-04-16T05:08:33.199Z,3.05
2023-04-16T05:11:18.361Z,3.10
2023-04-16T05:14:03.658Z,3.11
2023-04-16T05:16:49.105Z,3.11
2023-04-16T05:19:35.717Z,3.12
2023-04-16T05:22:21.068Z,3.14
2023-04-16T05:25:06.631Z,3.08
2023-04-16T05:27:51.954Z,3.07
2023-04-16T05:30:37.375Z,3.14
2023-04-16T05:33:22.615Z,3.10
2023-04-16T05:36:07.969Z,3.00
2023-04-16T05:38:53.108Z,2.96
2023-04-16T05:41:38.418Z,2.97
2023-04-16T05:44:23.748Z,2.95
2023-04-16T05:47:09.601Z,3.01
2023-04-16T05:49:54.794Z,3.13
2023-04-16T05:52:39.953Z,3.22
2023-04-16T05:55:25.365Z,3.33
2023-04-16T05:58:10.590Z,3.26
2023-04-16T06:00:55.975Z,3.26
2023-04-16T06:03:41.444Z,3.31
2023-04-16T06:06:27.491Z,3.29
2023-04-16T06:09:12.666Z,3.35
2023-04-16T06:11:58.046Z,3.36
2023-04-16T06:14:43.289Z,3.37
2023-04-16T06:17:28.566Z,3.37
2023-04-16T06:20:13.902Z,3.49
2023-04-16T06:22:59.363Z,3.50
2023-04-16T06:25:44.656Z,3.52
2023-04-16T06:28:29.949Z,3.52
2023-04-16T06:31:15.530Z,3.50
2023-04-16T06:34:00.537Z,3.54
2023-04-16T06:36:46.167Z,3.60
2023-04-16T06:39:31.191Z,3.63
2023-04-16T06:42:16.640Z,3.75
2023-04-16T06:45:01.944Z,3.87
2023-04-16T06:47:48.156Z,3.97
2023-04-16T06:50:34.190Z,3.95
2023-04-16T06:53:19.394Z,4.04
2023-04-16T06:56:05.073Z,4.16
2023-04-16T06:58:50.765Z,4.26
2023-04-16T07:01:36.636Z,4.38
2023-04-16T07:04:22.071Z,4.49
2023-04-16T07:07:07.279Z,4.62
2023-04-16T07:09:52.627Z,4.76
2023-04-16T07:12:38.073Z,4.87
2023-04-16T07:15:23.308Z,5.04
2023-04-16T07:18:08.743Z,5.16
2023-04-16T07:20:54.061Z,5.32
2023-04-16T07:23:39.315Z,5.45
2023-04-16T07:26:24.517Z,5.58
2023-04-16T07:29:10.155Z,5.68
2023-04-16T07:31:55.733Z,5.80
2023-04-16T07:34:41.037Z,5.93
2023-04-16T07:37:26.427Z,6.02
2023-04-16T07:40:12.079Z,6.17
2023-04-16T07:42:57.588Z,6.33
2023-04-16T07:45:42.617Z,6.58
2023-04-16T07:48:28.040Z,6.75
2023-04-16T07:51:13.931Z,6.98
2023-04-16T07:53:59.221Z,7.24
2023-04-16T07:56:44.541Z,7.42
2023-04-16T07:59:30.076Z,7.59
2023-04-16T08:02:19.677Z,7.84
2023-04-16T08:05:05.787Z,8.05
2023-04-16T08:07:50.834Z,8.20
2023-04-16T08:10:36.317Z,8.35
2023-04-16T08:13:25.168Z,8.47
2023-04-16T08:16:10.238Z,8.56
2023-04-16T08:18:55.536Z,8.67
2023-04-16T08:21:41.093Z,8.84
2023-04-16T08:24:26.603Z,9.00
2023-04-16T08:27:18.404Z,9.23
2023-04-16T08:30:06.097Z,9.42
2023-04-16T08:32:51.591Z,9.53
2023-04-16T08:35:37.058Z,9.59
2023-04-16T08:38:22.409Z,9.74
2023-04-16T08:41:12.359Z,9.87
2023-04-16T08:44:01.157Z,9.94
2023-04-16T08:46:47.680Z,9.96
2023-04-16T08:49:36.909Z,10.12
2023-04-16T08:52:24.223Z,10.18
2023-04-16T08:55:16.863Z,10.25
2023-04-16T08:58:08.323Z,10.40
2023-04-16T09:00:54.634Z,10.55
2023-04-16T09:03:41.453Z,10.67
2023-04-16T09:06:27.760Z,10.69
2023-04-16T09:09:14.296Z,10.77
2023-04-16T09:12:00.067Z,10.86
2023-04-16T09:14:49.870Z,10.92
2023-04-16T09:17:35.580Z,11.01
2023-04-16T09:20:21.207Z,11.20
2023-04-16T09:23:06.621Z,11.27
2023-04-16T09:25:51.889Z,11.38
2023-04-16T09:28:41.042Z,11.43
2023-04-16T09:31:25.914Z,11.47
2023-04-16T09:34:11.307Z,11.49
2023-04-16T09:36:56.731Z,11.51
2023-04-16T09:39:43.246Z,11.55
2023-04-16T09:42:36.517Z,11.55
2023-04-16T09:45:21.670Z,11.61
2023-04-16T09:48:07.018Z,11.75
2023-04-16T09:50:52.318Z,11.83
2023-04-16T09:53:37.755Z,11.85
2023-04-16T09:56:26.295Z,11.85
2023-04-16T09:59:18.908Z,11.85
2023-04-16T10:02:14.774Z,11.86
2023-04-16T10:05:03.199Z,11.89
2023-04-16T10:07:49.540Z,11.96
2023-04-16T10:10:35.125Z,11.99
2023-04-16T10:13:20.512Z,12.02
2023-04-16T10:16:06.954Z,12.06
2023-04-16T10:18:53.281Z,12.08
2023-04-16T10:21:38.398Z,12.17
2023-04-16T10:24:25.032Z,12.21
2023-04-16T10:27:10.769Z,12.26
2023-04-16T10:29:56.718Z,12.29
2023-04-16T10:32:42.484Z,12.32
2023-04-16T10:35:27.739Z,12.39
2023-04-16T10:38:28.788Z,12.39
2023-04-16T10:41:14.152Z,12.47
2023-04-16T10:44:11.601Z,12.50
2023-04-16T10:46:57.230Z,12.57
2023-04-16T10:49:44.109Z,12.65
2023-04-16T10:52:29.485Z,12.69
2023-04-16T10:55:17.764Z,12.74
2023-04-16T10:58:03.094Z,12.80
2023-04-16T11:00:52.093Z,12.87
2023-04-16T11:03:37.390Z,12.88
2023-04-16T11:06:26.973Z,12.93
2023-04-16T11:09:43.992Z,13.01
2023-04-16T11:12:29.206Z,13.06
2023-04-16T11:15:16.235Z,13.13
2023-04-16T11:18:04.037Z,13.17
2023-04-16T11:20:51.376Z,13.21
2023-04-16T11:23:50.252Z,13.29
2023-04-16T11:26:35.366Z,13.35
2023-04-16T11:29:20.671Z,13.44
2023-04-16T11:32:06.282Z,13.50
2023-04-16T11:34:51.379Z,13.54
2023-04-16T11:37:38.132Z,13.61
2023-04-16T11:40:23.435Z,13.73
2023-04-16T11:43:16.385Z,13.89
2023-04-16T11:46:20.104Z,13.91
2023-04-16T11:49:09.865Z,13.93
2023-04-16T11:51:56.431Z,13.93
2023-04-16T11:54:41.635Z,13.95
2023-04-16T11:57:31.921Z,13.96
2023-04-16T12:00:17.418Z,13.97
2023-04-16T12:03:03.108Z,13.99
2023-04-16T12:05:48.203Z,13.98
2023-04-16T12:08:33.598Z,14.00
2023-04-16T12:11:18.737Z,14.03
2023-04-16T12:14:08.789Z,14.03
2023-04-16T12:16:54.130Z,14.04
2023-04-16T12:19:49.169Z,14.08
2023-04-16T12:22:37.219Z,14.15
2023-04-16T12:25:24.618Z,14.25
2023-04-16T12:28:10.005Z,14.33
2023-04-16T12:30:55.369Z,14.38
2023-04-16T12:33:40.844Z,14.50
2023-04-16T12:36:26.235Z,14.59
2023-04-16T12:39:12.303Z,14.62
2023-04-16T12:41:57.636Z,14.69
2023-04-16T12:44:42.788Z,14.70
2023-04-16T12:47:28.145Z,14.72
2023-04-16T12:50:13.472Z,14.79
2023-04-16T12:52:59.293Z,14.83
2023-04-16T12:55:45.526Z,14.94
2023-04-16T12:58:31.077Z,15.07
2023-04-16T13:01:16.383Z,15.19
2023-04-16T13:04:01.821Z,15.26
2023-04-16T13:06:47.256Z,15.35
2023-04-16T13:09:32.527Z,15.41
2023-04-16T13:12:17.924Z,15.46
2023-04-16T13:15:03.342Z,15.49
2023-04-16T13:17:48.778Z,15.50
2023-04-16T13:20:34.025Z,15.51
2023-04-16T13:23:19.444Z,15.63
2023-04-16T13:26:04.709Z,15.67
2023-04-16T13:28:50.060Z,15.65
2023-04-16T13:31:35.670Z,15.71
2023-04-16T13:34:20.925Z,15.80
2023-04-16T13:37:06.391Z,15.73
2023-04-16T13:39:51.346Z,15.70
2023-04-16T13:42:36.759Z,15.69
2023-04-16T13:45:22.177Z,15.64
2023-04-16T13:48:07.460Z,15.56
2023-04-16T13:50:52.677Z,15.54
2023-04-16T13:53:37.928Z,15.63
2023-04-16T13:56:23.290Z,15.76
2023-04-16T13:59:08.775Z,15.85
2023-04-16T14:01:54.627Z,15.89
2023-04-16T14:04:39.751Z,15.95
2023-04-16T14:07:27.249Z,15.99
2023-04-16T14:10:12.558Z,15.94
2023-04-16T14:12:58.072Z,16.02
2023-04-16T14:15:43.276Z,16.13
2023-04-16T14:18:28.347Z,16.31
2023-04-16T14:21:13.633Z,16.32
2023-04-16T14:23:59.013Z,16.22
2023-04-16T14:26:44.480Z,16.19
2023-04-16T14:29:30.748Z,16.26
2023-04-16T14:32:15.779Z,16.41
2023-04-16T14:35:00.960Z,16.33
2023-04-16T14:37:46.851Z,16.29
2023-04-16T14:40:32.175Z,16.36
2023-04-16T14:43:17.496Z,16.39
2023-04-16T14:46:05.014Z,16.46
2023-04-16T14:48:50.313Z,16.49
2023-04-16T14:51:35.718Z,16.42
2023-04-16T14:54:21.202Z,16.36
2023-04-16T14:57:06.391Z,16.26
2023-04-16T14:59:51.790Z,16.09
2023-04-16T15:02:37.597Z,15.91
2023-04-16T15:05:22.997Z,15.78
2023-04-16T15:08:08.111Z,15.63
2023-04-16T15:10:53.978Z,15.59
2023-04-16T15:13:39.380Z,15.56
2023-04-16T15:16:24.774Z,15.53
2023-04-16T15:19:10.615Z,15.47
2023-04-16T15:21:56.150Z,15.45
2023-04-16T15:24:41.687Z,15.45
2023-04-16T15:27:27.026Z,15.44
2023-04-16T15:30:13.186Z,15.40
2023-04-16T15:32:58.723Z,15.35
2023-04-16T15:35:44.097Z,15.21
2023-04-16T15:38:30.720Z,15.18
2023-04-16T15:41:15.872Z,15.14
2023-04-16T15:44:01.190Z,15.07
2023-04-16T15:46:46.972Z,15.06
2023-04-16T15:49:32.334Z,14.97
2023-04-16T15:52:19.940Z,14.93
2023-04-16T15:55:05.651Z,14.91
2023-04-16T15:57:51.565Z,14.88
2023-04-16T16:00:36.988Z,14.85
2023-04-16T16:03:22.518Z,14.80
2023-04-16T16:06:08.940Z,14.71
2023-04-16T16:08:54.585Z,14.71
2023-04-16T16:11:39.580Z,14.70
2023-04-16T16:14:24.883Z,14.70
2023-04-16T16:17:10.217Z,14.69
2023-04-16T16:19:57.563Z,14.63
2023-04-16T16:22:45.282Z,14.67
2023-04-16T16:25:30.413Z,14.67
2023-04-16T16:28:15.641Z,14.65
2023-04-16T16:31:01.540Z,14.66
2023-04-16T16:33:47.070Z,14.61
2023-04-16T16:36:36.605Z,14.57
2023-04-16T16:39:24.479Z,14.54
2023-04-16T16:42:09.739Z,14.50
2023-04-16T16:44:57.323Z,14.46
2023-04-16T16:47:42.809Z,14.37
2023-04-16T16:50:27.886Z,14.30
2023-04-16T16:53:13.222Z,14.26
2023-04-16T16:55:58.454Z,14.22
2023-04-16T16:58:43.711Z,14.16
2023-04-16T17:01:29.879Z,14.14
2023-04-16T17:07:01.100Z,14.07
2023-04-16T17:09:46.251Z,14.02
2023-04-16T17:12:31.464Z,14.05
2023-04-16T17:15:19.128Z,13.96
2023-04-16T17:18:06.191Z,13.88
2023-04-16T17:20:51.773Z,13.84
2023-04-16T17:23:37.197Z,13.83
2023-04-16T17:26:23.070Z,13.75
2023-04-16T17:29:08.019Z,13.54
2023-04-16T17:31:53.884Z,13.32
2023-04-16T17:34:39.219Z,13.31
2023-04-16T17:37:24.874Z,13.26
2023-04-16T17:40:10.302Z,13.25
2023-04-16T17:42:55.437Z,13.23
2023-04-16T17:45:40.456Z,13.19
2023-04-16T17:48:25.723Z,13.10
2023-04-16T17:51:12.159Z,13.06
2023-04-16T17:53:57.496Z,13.00
2023-04-16T17:56:42.826Z,12.84
2023-04-16T17:59:28.150Z,12.70
2023-04-16T18:02:13.655Z,12.52
2023-04-16T18:04:58.985Z,12.41
2023-04-16T18:07:44.203Z,12.39
2023-04-16T18:10:31.581Z,12.32
2023-04-16T18:13:16.951Z,12.25
2023-04-16T18:16:02.863Z,12.18
2023-04-16T18:18:48.271Z,12.08
2023-04-16T18:21:35.434Z,11.98
2023-04-16T18:24:20.653Z,11.81
2023-04-16T18:27:05.874Z,11.77
2023-04-16T18:29:54.588Z,11.73
2023-04-16T18:32:55.942Z,11.69
2023-04-16T18:35:46.327Z,11.65
2023-04-16T18:38:31.490Z,11.62
2023-04-16T18:41:18.230Z,11.56
2023-04-16T18:44:03.742Z,11.45
2023-04-16T18:46:48.725Z,11.37
2023-04-16T18:49:34.107Z,11.27
2023-04-16T18:52:19.330Z,11.21
2023-04-16T18:55:05.248Z,11.12
2023-04-16T18:57:50.747Z,11.08
2023-04-16T19:00:36.187Z,11.03
2023-04-16T19:03:21.873Z,10.94
2023-04-16T19:06:07.718Z,10.69
2023-04-16T19:08:52.832Z,10.66
2023-04-16T19:11:38.249Z,10.65
2023-04-16T19:14:23.749Z,10.61
2023-04-16T19:17:09.121Z,10.51
2023-04-16T19:19:54.382Z,10.47
2023-04-16T19:22:39.901Z,10.41
2023-04-16T19:25:24.973Z,10.36
2023-04-16T19:28:10.296Z,10.35
2023-04-16T19:30:55.978Z,10.31
2023-04-16T19:33:41.665Z,10.25
2023-04-16T19:36:27.220Z,10.22
2023-04-16T19:39:12.687Z,10.14
2023-04-16T19:41:57.856Z,10.06
2023-04-16T19:44:43.139Z,9.98
2023-04-16T19:47:28.417Z,9.92
2023-04-16T19:50:13.973Z,9.82
2023-04-16T19:52:59.000Z,9.77
2023-04-16T19:55:44.335Z,9.71
2023-04-16T19:58:29.747Z,9.61
2023-04-16T20:01:15.010Z,9.56
2023-04-16T20:04:01.036Z,9.47
2023-04-16T20:06:46.501Z,9.39
2023-04-16T20:09:31.751Z,9.33
2023-04-16T20:12:18.070Z,9.26
2023-04-16T20:15:04.453Z,9.20
2023-04-16T20:17:50.006Z,9.13
2023-04-16T20:20:37.894Z,9.08
2023-04-16T20:23:23.068Z,9.04
2023-04-16T20:26:08.330Z,8.96
2023-04-16T20:28:53.784Z,8.87
2023-04-16T20:31:38.846Z,8.78
2023-04-16T20:34:24.088Z,8.73
2023-04-16T20:37:09.692Z,8.68
2023-04-16T20:39:56.101Z,8.62
2023-04-16T20:42:41.365Z,8.56
2023-04-16T20:45:38.162Z,8.52
2023-04-16T20:48:23.628Z,8.44
2023-04-16T20:51:12.260Z,8.36
2023-04-16T20:53:57.419Z,8.28
2023-04-16T20:56:43.345Z,8.22
2023-04-16T20:59:28.667Z,8.22
2023-04-16T21:02:14.055Z,8.20
2023-04-16T21:04:59.151Z,8.14
2023-04-16T21:07:44.412Z,8.02
2023-04-16T21:10:29.801Z,7.98
2023-04-16T21:13:15.380Z,7.94
2023-04-16T21:16:00.523Z,7.90
2023-04-16T21:18:45.906Z,7.85
2023-04-16T21:21:32.109Z,7.78
2023-04-16T21:24:17.555Z,7.71
2023-04-16T21:27:03.332Z,7.67
2023-04-16T21:29:48.526Z,7.64
2023-04-16T21:32:33.920Z,7.60
2023-04-16T21:35:19.472Z,7.56
2023-04-16T21:38:04.517Z,7.49
2023-04-16T21:40:53.756Z,7.44
2023-04-16T21:43:38.706Z,7.41
2023-04-16T21:46:25.438Z,7.35
2023-04-16T21:49:11.145Z,7.27
2023-04-16T21:51:59.248Z,7.22
2023-04-16T21:54:45.425Z,7.20
2023-04-16T21:57:30.520Z,7.15
2023-04-16T22:00:16.049Z,7.08
2023-04-16T22:03:01.376Z,7.01
2023-04-16T22:05:46.542Z,6.97
2023-04-16T22:08:32.240Z,6.92
2023-04-16T22:11:17.361Z,6.86
2023-04-16T22:14:03.074Z,6.82
2023-04-16T22:16:49.894Z,6.78
2023-04-16T22:19:37.325Z,6.72
2023-04-16T22:22:22.547Z,6.70
2023-04-16T22:25:08.262Z,6.66
2023-04-16T22:27:53.164Z,6.61
2023-04-16T22:30:38.427Z,6.57
2023-04-16T22:33:23.664Z,6.50
2023-04-16T22:36:09.114Z,6.45
2023-04-16T22:38:54.058Z,6.43
2023-04-16T22:41:39.539Z,6.42
2023-04-16T22:44:24.991Z,6.39
2023-04-16T22:47:10.301Z,6.36
2023-04-16T22:49:55.725Z,6.37
2023-04-16T22:52:41.575Z,6.37
2023-04-16T22:55:26.972Z,6.28
2023-04-16T22:58:12.477Z,6.28
2023-04-16T23:00:59.541Z,6.27
2023-04-16T23:03:44.804Z,6.24
2023-04-16T23:06:30.048Z,6.24
2023-04-16T23:09:15.581Z,6.20
2023-04-16T23:12:01.973Z,6.14
2023-04-16T23:14:48.129Z,6.11
2023-04-16T23:17:33.867Z,6.07
2023-04-16T23:20:19.063Z,6.03
2023-04-16T23:23:04.550Z,6.00
2023-04-16T23:25:53.264Z,5.96
2023-04-16T23:28:38.540Z,5.97
2023-04-16T23:31:23.889Z,5.93
2023-04-16T23:34:09.330Z,5.87
2023-04-16T23:36:54.707Z,5.85
2023-04-16T23:39:40.029Z,5.87
2023-04-16T23:42:25.389Z,5.83
2023-04-16T23:45:11.177Z,5.80
2023-04-16T23:47:56.303Z,5.75
2023-04-16T23:50:41.588Z,5.72
2023-04-16T23:53:27.141Z,5.71
2023-04-16T23:56:13.282Z,5.74
2023-04-16T23:58:58.393Z,5.70
